createdAt,value
2018-07-16T00:00:59.323Z,7.20
2018-07-16T00:03:03.303Z,7.67
2018-07-16T00:05:09.698Z,8.30
2018-07-16T00:07:13.629Z,7.80
2018-07-16T00:09:17.503Z,8.80
2018-07-16T00:11:21.832Z,7.80
2018-07-16T00:13:29.662Z,7.60
2018-07-16T00:15:33.638Z,7.73
2018-07-16T00:17:37.651Z,6.83
2018-07-16T00:19:41.655Z,8.33
2018-07-16T00:21:45.599Z,7.93
2018-07-16T00:23:50.683Z,7.63
2018-07-16T00:25:55.246Z,8.53
2018-07-16T00:27:59.235Z,7.40
2018-07-16T00:30:05.868Z,6.67
2018-07-16T00:32:09.876Z,6.60
2018-07-16T00:34:14.417Z,9.50
2018-07-16T00:36:18.806Z,8.33
2018-07-16T00:38:23.719Z,7.73
2018-07-16T00:40:28.204Z,8.00
2018-07-16T00:42:33.703Z,7.43
2018-07-16T00:44:39.270Z,8.80
2018-07-16T00:46:43.227Z,8.13
2018-07-16T00:48:47.211Z,6.77
2018-07-16T00:50:52.204Z,7.03
2018-07-16T00:52:56.735Z,8.63
2018-07-16T00:55:02.031Z,6.13
2018-07-16T00:57:06.266Z,7.27
2018-07-16T00:59:10.288Z,7.03
2018-07-16T01:01:14.265Z,6.40
2018-07-16T01:03:18.188Z,7.07
2018-07-16T01:05:22.150Z,6.00
2018-07-16T01:07:26.669Z,5.20
2018-07-16T01:09:31.090Z,8.07
2018-07-16T01:11:35.059Z,7.30
2018-07-16T01:13:38.943Z,7.50
2018-07-16T01:15:44.369Z,6.13
2018-07-16T01:17:55.976Z,5.80
2018-07-16T01:20:00.225Z,5.87
2018-07-16T01:22:04.782Z,5.47
2018-07-16T01:24:08.740Z,5.80
2018-07-16T01:26:15.556Z,6.03
2018-07-16T01:28:19.463Z,5.73
2018-07-16T01:30:23.366Z,5.77
2018-07-16T01:32:26.962Z,5.80
2018-07-16T01:34:31.299Z,5.13
2018-07-16T01:36:35.308Z,7.00
2018-07-16T01:38:39.223Z,6.70
2018-07-16T01:40:44.687Z,5.47
2018-07-16T01:42:48.655Z,5.43
2018-07-16T01:44:52.680Z,5.80
2018-07-16T01:46:58.019Z,5.60
2018-07-16T01:49:01.968Z,5.33
2018-07-16T01:51:06.020Z,6.30
2018-07-16T01:53:10.027Z,7.23
2018-07-16T01:55:15.223Z,5.13
2018-07-16T01:57:19.177Z,5.80
2018-07-16T01:59:23.484Z,5.60
2018-07-16T02:01:27.416Z,5.60
2018-07-16T02:03:33.549Z,7.30
2018-07-16T02:05:37.899Z,6.53
2018-07-16T02:07:41.835Z,5.90
2018-07-16T02:09:45.762Z,5.17
2018-07-16T02:11:50.343Z,5.93
2018-07-16T02:13:54.295Z,6.97
2018-07-16T02:15:58.296Z,5.90
2018-07-16T02:18:03.579Z,7.53
2018-07-16T02:20:09.633Z,7.20
2018-07-16T02:22:20.278Z,7.23
2018-07-16T02:24:25.528Z,7.27
2018-07-16T02:26:29.431Z,8.10
2018-07-16T02:28:33.365Z,8.00
2018-07-16T02:30:38.127Z,8.03
2018-07-16T02:32:41.744Z,6.70
2018-07-16T02:34:45.623Z,7.40
2018-07-16T02:36:50.011Z,8.33
2018-07-16T02:38:53.999Z,7.83
2018-07-16T02:40:58.443Z,6.30
2018-07-16T02:43:04.762Z,7.20
2018-07-16T02:45:08.735Z,6.73
2018-07-16T02:47:12.647Z,7.40
2018-07-16T02:49:18.765Z,6.97
2018-07-16T02:51:26.978Z,6.50
2018-07-16T02:53:32.055Z,7.13
2018-07-16T02:55:36.464Z,7.43
2018-07-16T02:57:39.956Z,6.57
2018-07-16T02:59:43.926Z,9.27
2018-07-16T03:01:49.231Z,7.03
2018-07-16T03:03:53.319Z,7.77
2018-07-16T03:05:57.306Z,7.13
2018-07-16T03:08:01.717Z,6.93
2018-07-16T03:10:05.832Z,7.40
2018-07-16T03:12:09.972Z,7.13
2018-07-16T03:14:15.731Z,7.00
2018-07-16T03:16:19.711Z,8.60
2018-07-16T03:18:24.186Z,7.73
2018-07-16T03:20:28.676Z,7.60
2018-07-16T03:22:32.666Z,7.17
2018-07-16T03:24:36.597Z,7.90
2018-07-16T03:26:41.427Z,8.97
2018-07-16T03:28:45.444Z,7.67
2018-07-16T03:30:49.524Z,9.30
2018-07-16T03:32:57.688Z,8.47
2018-07-16T03:35:01.646Z,8.00
2018-07-16T03:37:05.628Z,8.37
2018-07-16T03:39:10.448Z,7.73
2018-07-16T03:41:14.358Z,8.40
2018-07-16T03:43:19.165Z,8.90
2018-07-16T03:45:23.490Z,8.47
2018-07-16T03:47:27.622Z,7.20
2018-07-16T03:49:31.668Z,9.67
2018-07-16T03:51:35.976Z,8.13
2018-07-16T03:53:40.305Z,7.33
2018-07-16T03:55:44.242Z,8.10
2018-07-16T03:57:49.798Z,10.10
2018-07-16T03:59:53.780Z,8.67
2018-07-16T04:01:58.218Z,9.67
2018-07-16T04:04:02.173Z,11.20
2018-07-16T04:06:06.789Z,10.80
2018-07-16T04:08:11.576Z,9.87
2018-07-16T04:10:16.839Z,9.93
2018-07-16T04:12:20.722Z,9.77
2018-07-16T04:14:24.762Z,11.50
2018-07-16T04:16:30.767Z,10.40
2018-07-16T04:18:34.759Z,11.27
2018-07-16T04:20:38.664Z,9.83
2018-07-16T04:22:44.063Z,9.83
2018-07-16T04:24:48.008Z,10.57
2018-07-16T04:26:51.524Z,10.43
2018-07-16T04:28:55.539Z,10.07
2018-07-16T04:30:59.641Z,9.03
2018-07-16T04:33:03.832Z,10.33
2018-07-16T04:35:08.971Z,9.30
2018-07-16T04:37:14.251Z,9.87
2018-07-16T04:39:17.819Z,9.90
2018-07-16T04:41:22.234Z,12.73
2018-07-16T04:43:26.159Z,9.00
2018-07-16T04:45:30.535Z,9.50
2018-07-16T04:47:34.995Z,10.47
2018-07-16T04:49:39.029Z,9.27
2018-07-16T04:51:42.542Z,11.93
2018-07-16T04:53:46.943Z,8.20
2018-07-16T04:55:51.394Z,9.60
2018-07-16T04:57:55.353Z,11.33
2018-07-16T05:00:00.395Z,8.53
2018-07-16T05:02:04.728Z,8.93
2018-07-16T05:04:08.695Z,9.03
2018-07-16T05:06:15.754Z,12.53
2018-07-16T05:08:19.858Z,12.20
2018-07-16T05:10:28.984Z,10.37
2018-07-16T05:12:33.433Z,9.37
2018-07-16T05:14:37.621Z,10.27
2018-07-16T05:16:43.283Z,9.10
2018-07-16T05:18:47.606Z,8.70
2018-07-16T05:20:53.801Z,7.97
2018-07-16T05:22:57.871Z,8.33
2018-07-16T05:25:02.865Z,10.20
2018-07-16T05:27:07.552Z,8.17
2018-07-16T05:29:11.661Z,8.63
2018-07-16T05:31:18.855Z,7.90
2018-07-16T05:33:22.890Z,7.73
2018-07-16T05:35:26.888Z,8.53
2018-07-16T05:37:31.441Z,8.27
2018-07-16T05:39:35.402Z,7.73
2018-07-16T05:41:39.408Z,8.57
2018-07-16T05:43:43.817Z,7.53
2018-07-16T05:45:50.755Z,7.23
2018-07-16T05:47:57.293Z,8.10
2018-07-16T05:50:01.978Z,8.07
2018-07-16T05:52:07.839Z,8.43
2018-07-16T05:54:11.974Z,8.93
2018-07-16T05:56:35.578Z,10.60
2018-07-16T05:58:39.645Z,8.03
2018-07-16T06:00:43.711Z,8.77
2018-07-16T06:02:56.910Z,9.50
2018-07-16T06:05:01.410Z,8.67
2018-07-16T06:07:05.488Z,9.73
2018-07-16T06:09:11.591Z,9.63
2018-07-16T06:11:19.873Z,9.73
2018-07-16T06:13:24.328Z,9.40
2018-07-16T06:15:29.674Z,9.80
2018-07-16T06:17:33.949Z,9.50
2018-07-16T06:19:37.890Z,9.80
2018-07-16T06:21:44.065Z,9.77
2018-07-16T06:23:50.110Z,9.63
2018-07-16T06:25:55.239Z,8.87
2018-07-16T06:28:17.274Z,13.17
2018-07-16T06:30:33.468Z,8.70
2018-07-16T06:32:43.606Z,9.00
2018-07-16T06:34:51.325Z,10.03
2018-07-16T06:37:07.158Z,9.90
2018-07-16T06:41:27.286Z,9.63
2018-07-16T06:43:30.601Z,10.13
2018-07-16T06:45:34.517Z,9.20
2018-07-16T06:47:39.826Z,9.83
2018-07-16T06:49:43.802Z,10.87
2018-07-16T06:51:48.320Z,10.20
2018-07-16T06:53:53.696Z,10.10
2018-07-16T06:55:58.693Z,10.53
2018-07-16T06:58:09.408Z,9.93
2018-07-16T07:00:18.645Z,9.97
2018-07-16T07:02:24.410Z,9.80
2018-07-16T07:04:35.505Z,10.67
2018-07-16T07:06:41.872Z,12.33
2018-07-16T07:08:47.990Z,16.03
2018-07-16T07:10:54.462Z,25.93
2018-07-16T07:12:59.746Z,23.80
2018-07-16T07:15:06.490Z,23.20
2018-07-16T07:17:11.451Z,34.67
2018-07-16T07:19:16.724Z,17.70
2018-07-16T07:21:21.496Z,25.37
2018-07-16T07:23:25.485Z,21.27
2018-07-16T07:25:34.791Z,19.50
2018-07-16T07:27:41.863Z,20.17
2018-07-16T07:29:47.132Z,19.93
2018-07-16T07:31:52.221Z,20.37
2018-07-16T07:33:59.218Z,19.23
2018-07-16T07:36:03.427Z,21.27
2018-07-16T07:38:11.600Z,23.37
2018-07-16T07:40:20.362Z,19.40
2018-07-16T07:42:29.593Z,18.73
2018-07-16T07:44:43.427Z,20.63
2018-07-16T07:46:51.535Z,19.70
2018-07-16T07:48:56.196Z,17.90
2018-07-16T07:51:02.069Z,19.47
2018-07-16T07:53:07.640Z,20.50
2018-07-16T07:55:12.212Z,17.97
2018-07-16T07:57:16.960Z,22.03
2018-07-16T07:59:21.578Z,18.10
2018-07-16T08:01:26.267Z,19.87
2018-07-16T08:03:35.448Z,17.93
2018-07-16T08:05:41.214Z,18.67
2018-07-16T08:07:49.498Z,18.50
2018-07-16T08:09:58.541Z,18.53
2018-07-16T08:12:02.687Z,19.87
2018-07-16T08:14:12.277Z,19.07
2018-07-16T08:16:23.838Z,18.53
2018-07-16T08:18:33.402Z,17.80
2018-07-16T08:20:42.763Z,18.87
2018-07-16T08:22:49.695Z,18.23
2018-07-16T08:25:03.303Z,18.53
2018-07-16T08:27:10.688Z,19.13
2018-07-16T08:29:17.491Z,19.20
2018-07-16T08:31:22.433Z,20.00
2018-07-16T08:33:29.098Z,19.60
2018-07-16T08:35:33.805Z,18.20
2018-07-16T08:37:45.806Z,22.67
2018-07-16T08:39:52.640Z,20.27
2018-07-16T08:41:59.800Z,20.40
2018-07-16T08:44:04.494Z,21.50
2018-07-16T08:46:09.106Z,20.97
2018-07-16T08:48:15.374Z,21.87
2018-07-16T08:50:23.684Z,20.57
2018-07-16T08:54:41.798Z,20.53
2018-07-16T08:56:45.881Z,25.50
2018-07-16T08:58:51.598Z,19.67
2018-07-16T09:00:55.904Z,18.50
2018-07-16T09:03:00.828Z,17.20
2018-07-16T09:05:05.399Z,16.53
2018-07-16T09:07:10.478Z,17.87
2018-07-16T09:09:16.471Z,16.97
2018-07-16T09:11:25.368Z,14.47
2018-07-16T09:13:36.412Z,11.40
2018-07-16T09:15:42.490Z,11.67
2018-07-16T09:17:52.724Z,10.77
2018-07-16T09:20:00.839Z,10.93
2018-07-16T09:22:11.716Z,11.67
2018-07-16T09:24:18.252Z,10.97
2018-07-16T09:26:26.316Z,12.57
2018-07-16T09:28:31.273Z,12.37
2018-07-16T09:30:36.110Z,12.90
2018-07-16T09:33:01.784Z,13.80
2018-07-16T09:35:06.879Z,14.57
2018-07-16T09:37:12.755Z,15.87
2018-07-16T09:39:17.934Z,15.57
2018-07-16T09:41:21.889Z,16.00
2018-07-16T09:43:26.733Z,14.00
2018-07-16T09:45:30.719Z,14.33
2018-07-16T09:47:35.610Z,14.40
2018-07-16T09:49:40.644Z,14.70
2018-07-16T09:51:47.420Z,14.27
2018-07-16T09:53:53.980Z,12.43
2018-07-16T09:55:57.963Z,13.97
2018-07-16T09:58:03.818Z,13.53
2018-07-16T10:00:21.171Z,14.07
2018-07-16T10:02:25.839Z,13.48
2018-07-16T10:04:32.548Z,12.80
2018-07-16T10:06:36.771Z,12.82
2018-07-16T10:08:42.067Z,13.38
2018-07-16T10:10:46.978Z,12.82
2018-07-16T10:12:54.012Z,10.58
2018-07-16T10:15:00.172Z,11.20
2018-07-16T10:17:04.696Z,10.82
2018-07-16T10:19:11.049Z,10.93
2018-07-16T10:21:15.207Z,9.23
2018-07-16T10:23:23.214Z,13.90
2018-07-16T10:25:26.798Z,11.08
2018-07-16T10:27:31.886Z,11.10
2018-07-16T10:29:38.071Z,12.05
2018-07-16T10:31:42.784Z,10.68
2018-07-16T10:33:48.849Z,10.10
2018-07-16T10:35:56.960Z,9.40
2018-07-16T10:38:19.145Z,10.38
2018-07-16T10:40:29.066Z,10.18
2018-07-16T10:42:35.090Z,7.97
2018-07-16T10:44:44.259Z,9.03
2018-07-16T10:46:48.239Z,6.28
2018-07-16T10:48:53.559Z,6.92
2018-07-16T10:50:57.769Z,5.53
2018-07-16T10:53:01.812Z,6.03
2018-07-16T10:55:08.552Z,6.60
2018-07-16T10:57:14.440Z,8.65
2018-07-16T10:59:18.676Z,6.67
2018-07-16T11:01:24.619Z,6.70
2018-07-16T11:03:30.202Z,6.70
2018-07-16T11:05:35.816Z,6.78
2018-07-16T11:07:42.084Z,6.65
2018-07-16T11:09:51.732Z,6.80
2018-07-16T11:11:56.833Z,5.15
2018-07-16T11:14:03.168Z,5.40
2018-07-16T11:16:07.412Z,5.65
2018-07-16T11:18:13.203Z,5.30
2018-07-16T11:20:27.263Z,6.22
2018-07-16T11:22:33.284Z,4.40
2018-07-16T11:24:37.282Z,4.15
2018-07-16T11:26:44.189Z,5.55
2018-07-16T11:29:08.910Z,4.40
2018-07-16T11:31:21.555Z,8.53
2018-07-16T11:33:32.688Z,7.15
2018-07-16T11:35:36.651Z,6.22
2018-07-16T11:37:41.560Z,4.90
2018-07-16T11:39:45.541Z,5.25
2018-07-16T11:41:49.524Z,6.33
2018-07-16T11:43:54.119Z,4.53
2018-07-16T11:45:59.661Z,4.53
2018-07-16T11:48:04.277Z,4.42
2018-07-16T11:50:09.636Z,4.83
2018-07-16T11:52:14.485Z,4.37
2018-07-16T11:54:18.345Z,4.12
2018-07-16T11:56:22.271Z,3.92
2018-07-16T11:58:26.241Z,4.53
2018-07-16T12:00:31.285Z,4.45
2018-07-16T12:02:37.892Z,3.80
2018-07-16T12:04:43.120Z,4.60
2018-07-16T12:06:47.052Z,4.53
2018-07-16T12:08:54.554Z,4.67
2018-07-16T12:10:59.407Z,5.05
2018-07-16T12:13:03.614Z,5.10
2018-07-16T12:15:08.029Z,4.60
2018-07-16T12:17:12.124Z,4.90
2018-07-16T12:19:17.093Z,6.83
2018-07-16T12:21:22.308Z,4.70
2018-07-16T12:23:27.287Z,4.90
2018-07-16T12:25:33.179Z,4.75
2018-07-16T12:27:40.964Z,5.42
2018-07-16T12:29:47.367Z,5.40
2018-07-16T12:31:53.346Z,4.17
2018-07-16T12:33:59.430Z,7.30
2018-07-16T12:36:05.376Z,4.65
2018-07-16T12:38:09.596Z,6.75
2018-07-16T12:40:18.717Z,4.42
2018-07-16T12:42:22.719Z,4.60
2018-07-16T12:44:29.507Z,3.33
2018-07-16T12:46:33.455Z,3.00
2018-07-16T12:48:39.275Z,3.85
2018-07-16T12:50:44.512Z,3.87
2018-07-16T12:52:50.007Z,3.83
2018-07-16T12:54:54.857Z,3.87
2018-07-16T12:56:58.674Z,3.90
2018-07-16T12:59:03.073Z,3.92
2018-07-16T13:01:07.098Z,3.65
2018-07-16T13:03:11.067Z,3.80
2018-07-16T13:05:19.293Z,3.52
2018-07-16T13:07:24.273Z,3.77
2018-07-16T13:09:29.680Z,4.05
2018-07-16T13:11:33.634Z,3.75
2018-07-16T13:13:39.763Z,4.03
2018-07-16T13:15:45.328Z,3.80
2018-07-16T13:17:57.223Z,4.80
2018-07-16T13:20:01.674Z,3.30
2018-07-16T13:22:07.858Z,3.80
2018-07-16T13:24:17.167Z,3.90
2018-07-16T13:26:22.895Z,3.67
2018-07-16T13:28:27.732Z,3.40
2018-07-16T13:30:38.617Z,4.47
2018-07-16T13:32:42.701Z,3.45
2018-07-16T13:34:48.757Z,3.60
2018-07-16T13:36:54.119Z,3.50
2018-07-16T13:39:00.266Z,3.58
2018-07-16T13:41:04.400Z,3.60
2018-07-16T13:43:09.099Z,4.25
2018-07-16T13:45:16.435Z,4.72
2018-07-16T13:47:22.162Z,4.53
2018-07-16T13:49:26.553Z,6.10
2018-07-16T13:51:31.245Z,3.42
2018-07-16T13:53:35.251Z,3.60
2018-07-16T13:55:41.204Z,3.67
2018-07-16T13:57:45.243Z,4.75
2018-07-16T13:59:49.479Z,3.67
2018-07-16T14:01:57.356Z,3.30
2018-07-16T14:04:03.993Z,3.27
2018-07-16T14:06:14.295Z,3.67
2018-07-16T14:08:18.809Z,5.55
2018-07-16T14:10:24.247Z,3.25
2018-07-16T14:12:28.435Z,3.75
2018-07-16T14:14:36.511Z,3.17
2018-07-16T14:16:40.525Z,3.95
2018-07-16T14:18:45.993Z,3.62
2018-07-16T14:20:57.691Z,3.37
2018-07-16T14:23:02.310Z,3.52
2018-07-16T14:25:06.408Z,3.30
2018-07-16T14:27:11.855Z,3.40
2018-07-16T14:29:18.493Z,3.22
2018-07-16T14:31:24.975Z,3.10
2018-07-16T14:33:28.908Z,3.98
2018-07-16T14:35:33.410Z,3.20
2018-07-16T14:37:37.418Z,3.50
2018-07-16T14:39:41.800Z,4.25
2018-07-16T14:41:49.479Z,2.47
2018-07-16T14:43:58.013Z,3.33
2018-07-16T14:46:05.350Z,3.47
2018-07-16T14:48:10.008Z,3.40
2018-07-16T14:50:14.914Z,5.03
2018-07-16T14:52:21.408Z,3.17
2018-07-16T14:54:25.381Z,4.33
2018-07-16T14:56:30.354Z,3.77
2018-07-16T14:58:34.283Z,3.65
2018-07-16T15:00:42.525Z,3.77
2018-07-16T15:02:48.074Z,3.95
2018-07-16T15:04:52.362Z,3.40
2018-07-16T15:07:00.009Z,3.87
2018-07-16T15:09:05.413Z,3.90
2018-07-16T15:11:10.572Z,3.25
2018-07-16T15:13:16.238Z,2.95
2018-07-16T15:15:22.808Z,3.45
2018-07-16T15:17:27.310Z,4.80
2018-07-16T15:19:32.775Z,3.47
2018-07-16T15:21:38.755Z,3.20
2018-07-16T15:23:44.261Z,3.83
2018-07-16T15:25:49.266Z,3.85
2018-07-16T15:27:57.006Z,3.42
2018-07-16T15:30:05.242Z,3.85
2018-07-16T15:32:09.940Z,3.85
2018-07-16T15:34:18.776Z,3.67
2018-07-16T15:36:23.156Z,6.12
2018-07-16T15:38:28.403Z,5.50
2018-07-16T15:40:33.454Z,3.35
2018-07-16T15:42:39.232Z,3.25
2018-07-16T15:44:50.741Z,5.60
2018-07-16T15:46:58.510Z,4.85
2018-07-16T15:49:04.296Z,3.98
2018-07-16T15:51:10.044Z,4.72
2018-07-16T15:53:15.129Z,3.95
2018-07-16T15:55:21.646Z,4.33
2018-07-16T15:57:26.679Z,3.52
2018-07-16T15:59:32.103Z,3.35
2018-07-16T16:01:39.607Z,5.28
2018-07-16T16:03:43.559Z,3.62
2018-07-16T16:05:48.004Z,3.80
2018-07-16T16:07:53.891Z,3.80
2018-07-16T16:09:57.871Z,3.90
2018-07-16T16:12:10.177Z,3.72
2018-07-16T16:14:15.730Z,5.20
2018-07-16T16:16:20.960Z,5.78
2018-07-16T16:18:25.733Z,4.55
2018-07-16T16:20:31.604Z,3.22
2018-07-16T16:22:37.495Z,3.55
2018-07-16T16:24:43.302Z,4.90
2018-07-16T16:26:49.287Z,4.72
2018-07-16T16:28:54.825Z,3.22
2018-07-16T16:31:00.923Z,3.30
2018-07-16T16:33:07.268Z,4.58
2018-07-16T16:35:14.639Z,4.08
2018-07-16T16:37:23.836Z,3.90
2018-07-16T16:39:27.769Z,3.12
2018-07-16T16:41:34.193Z,4.30
2018-07-16T16:43:45.762Z,3.20
2018-07-16T16:45:49.748Z,3.17
2018-07-16T16:47:54.301Z,3.60
2018-07-16T16:49:59.947Z,3.08
2018-07-16T16:52:07.393Z,5.85
2018-07-16T16:54:12.335Z,4.15
2018-07-16T16:56:17.292Z,3.22
2018-07-16T16:58:21.524Z,4.17
2018-07-16T17:00:56.567Z,3.60
2018-07-16T17:03:01.588Z,4.78
2018-07-16T17:05:05.763Z,4.40
2018-07-16T17:07:11.643Z,5.90
2018-07-16T17:09:16.199Z,4.15
2018-07-16T17:11:20.559Z,3.00
2018-07-16T17:13:24.549Z,3.15
2018-07-16T17:15:31.599Z,3.33
2018-07-16T17:17:36.491Z,5.28
2018-07-16T17:19:42.207Z,4.67
2018-07-16T17:21:54.000Z,2.90
2018-07-16T17:23:58.051Z,4.53
2018-07-16T17:26:03.607Z,3.75
2018-07-16T17:28:11.358Z,4.08
2018-07-16T17:30:17.335Z,3.10
2018-07-16T17:32:32.695Z,5.72
2018-07-16T17:34:43.213Z,3.75
2018-07-16T17:36:47.657Z,3.25
2018-07-16T17:38:52.587Z,2.72
2018-07-16T17:41:01.264Z,3.00
2018-07-16T17:43:08.367Z,3.90
2018-07-16T17:45:18.526Z,3.35
2018-07-16T17:47:28.398Z,2.72
2018-07-16T17:49:41.276Z,4.50
2018-07-16T17:51:59.095Z,4.10
2018-07-16T17:54:06.348Z,2.95
2018-07-16T18:00:29.438Z,3.40
2018-07-16T18:02:35.344Z,2.58
2018-07-16T18:04:39.968Z,2.10
2018-07-16T18:06:44.360Z,2.15
2018-07-16T18:08:50.362Z,4.50
2018-07-16T18:10:55.656Z,2.60
2018-07-16T18:13:01.447Z,4.20
2018-07-16T18:15:09.261Z,6.17
2018-07-16T18:17:14.037Z,6.20
2018-07-16T18:19:20.037Z,5.53
2018-07-16T18:21:25.588Z,4.87
2018-07-16T18:23:31.799Z,4.73
2018-07-16T18:25:38.324Z,10.83
2018-07-16T18:27:42.330Z,4.77
2018-07-16T18:29:47.795Z,5.23
2018-07-16T18:31:57.466Z,5.50
2018-07-16T18:34:12.055Z,2.23
2018-07-16T18:36:20.079Z,3.67
2018-07-16T18:38:56.574Z,3.20
2018-07-16T18:41:02.244Z,5.40
2018-07-16T18:43:08.962Z,5.77
2018-07-16T18:45:16.576Z,3.03
2018-07-16T18:47:23.328Z,5.93
2018-07-16T18:49:27.499Z,4.13
2018-07-16T18:51:34.380Z,7.27
2018-07-16T18:53:40.957Z,5.77
2018-07-16T18:55:46.323Z,5.60
2018-07-16T18:58:07.091Z,3.50
2018-07-16T19:00:14.200Z,6.00
2018-07-16T19:02:19.323Z,5.40
2018-07-16T19:04:25.339Z,5.30
2018-07-16T19:06:29.372Z,10.03
2018-07-16T19:08:41.816Z,4.77
2018-07-16T19:10:50.533Z,5.23
2018-07-16T19:12:59.676Z,5.80
2018-07-16T19:15:38.135Z,11.50
2018-07-16T19:17:45.642Z,5.47
2018-07-16T19:19:51.815Z,3.50
2018-07-16T19:21:56.555Z,4.33
2018-07-16T19:24:03.035Z,9.20
2018-07-16T19:26:08.403Z,5.50
2018-07-16T19:28:13.043Z,9.07
2018-07-16T19:30:18.280Z,7.13
2018-07-16T19:32:23.472Z,6.57
2018-07-16T19:34:28.844Z,11.90
2018-07-16T19:36:37.416Z,14.23
2018-07-16T19:38:42.455Z,30.73
2018-07-16T19:40:48.039Z,25.10
2018-07-16T19:42:52.444Z,20.20
2018-07-16T19:44:59.584Z,21.97
2018-07-16T19:47:05.861Z,25.67
2018-07-16T19:49:10.356Z,16.00
2018-07-16T19:51:15.255Z,12.07
2018-07-16T19:53:21.851Z,10.20
2018-07-16T19:55:27.236Z,12.53
2018-07-16T19:57:34.616Z,13.93
2018-07-16T19:59:41.320Z,17.30
2018-07-16T20:01:47.558Z,16.17
2018-07-16T20:03:53.316Z,17.37
2018-07-16T20:05:57.211Z,13.30
2018-07-16T20:08:02.987Z,18.30
2018-07-16T20:10:07.724Z,18.60
2018-07-16T20:12:25.288Z,18.67
2018-07-16T20:14:30.944Z,26.13
2018-07-16T20:16:43.800Z,13.00
2018-07-16T20:18:48.284Z,15.67
2018-07-16T20:20:57.864Z,9.83
2018-07-16T20:23:03.527Z,4.37
2018-07-16T20:25:08.198Z,7.03
2018-07-16T20:27:17.974Z,5.57
2018-07-16T20:29:23.608Z,7.47
2018-07-16T20:31:29.334Z,6.13
2018-07-16T20:33:36.381Z,7.57
2018-07-16T20:35:40.916Z,5.83
2018-07-16T20:37:49.006Z,4.53
2018-07-16T20:39:53.990Z,6.17
2018-07-16T20:41:59.972Z,8.60
2018-07-16T20:44:04.373Z,6.13
2018-07-16T20:46:09.908Z,7.73
2018-07-16T20:48:16.518Z,6.77
2018-07-16T20:50:25.406Z,3.23
2018-07-16T20:52:31.848Z,6.70
2018-07-16T20:54:37.771Z,5.63
2018-07-16T20:59:06.678Z,3.77
2018-07-16T21:01:12.734Z,3.70
2018-07-16T21:03:18.055Z,3.50
2018-07-16T21:05:26.427Z,4.00
2018-07-16T21:07:34.332Z,3.87
2018-07-16T21:09:42.759Z,3.80
2018-07-16T21:11:48.440Z,4.07
2018-07-16T21:13:55.491Z,4.00
2018-07-16T21:16:03.612Z,6.03
2018-07-16T21:18:11.516Z,4.17
2018-07-16T21:20:16.674Z,4.30
2018-07-16T21:22:21.599Z,4.07
2018-07-16T21:24:27.347Z,4.90
2018-07-16T21:26:35.056Z,4.97
2018-07-16T21:28:44.743Z,4.27
2018-07-16T21:30:56.912Z,4.07
2018-07-16T21:33:04.248Z,7.50
2018-07-16T21:35:09.625Z,6.03
2018-07-16T21:37:14.860Z,5.23
2018-07-16T21:39:18.730Z,5.30
2018-07-16T21:41:23.459Z,5.20
2018-07-16T21:43:30.240Z,4.60
2018-07-16T21:45:40.427Z,4.27
2018-07-16T21:47:52.151Z,4.63
2018-07-16T21:49:56.194Z,4.60
2018-07-16T21:52:00.781Z,5.07
2018-07-16T21:54:12.871Z,5.43
2018-07-16T21:56:20.956Z,4.40
2018-07-16T21:58:26.344Z,5.27
2018-07-16T22:00:33.287Z,4.23
2018-07-16T22:02:40.150Z,4.57
2018-07-16T22:04:54.527Z,6.10
2018-07-16T22:06:59.463Z,3.93
2018-07-16T22:09:08.247Z,3.63
2018-07-16T22:11:18.420Z,3.83
2018-07-16T22:13:33.554Z,3.90
2018-07-16T22:15:44.103Z,3.60
2018-07-16T22:17:49.583Z,4.20
2018-07-16T22:22:12.681Z,3.57
2018-07-16T22:24:21.972Z,4.00
2018-07-16T22:26:31.615Z,5.20
2018-07-16T22:28:37.545Z,4.43
2018-07-16T22:30:45.292Z,3.97
2018-07-16T22:32:52.548Z,3.70
2018-07-16T22:34:59.149Z,7.30
2018-07-16T22:37:06.425Z,4.67
2018-07-16T22:39:13.199Z,5.07
2018-07-16T22:41:21.815Z,6.37
2018-07-16T22:43:28.404Z,4.67
2018-07-16T22:45:34.013Z,5.20
2018-07-16T22:47:38.836Z,4.80
2018-07-16T22:49:44.111Z,4.73
2018-07-16T22:51:54.150Z,3.80
2018-07-16T22:54:04.800Z,4.47
2018-07-16T22:56:10.713Z,4.73
2018-07-16T22:58:14.809Z,4.50
2018-07-16T23:00:19.783Z,3.70
2018-07-16T23:05:03.035Z,4.30
2018-07-16T23:07:08.075Z,4.90
2018-07-16T23:09:13.320Z,6.10
2018-07-16T23:11:18.304Z,5.20
2018-07-16T23:13:23.479Z,4.77
2018-07-16T23:15:32.261Z,6.87
2018-07-16T23:17:36.243Z,5.03
2018-07-16T23:19:42.590Z,7.90
2018-07-16T23:21:46.568Z,6.17
2018-07-16T23:23:50.762Z,4.40
2018-07-16T23:25:56.824Z,5.17
2018-07-16T23:28:02.055Z,4.73
2018-07-16T23:30:18.014Z,4.47
2018-07-16T23:32:27.424Z,5.40
2018-07-16T23:34:31.711Z,7.03
2018-07-16T23:36:35.684Z,5.37
2018-07-16T23:38:41.543Z,5.40
2018-07-16T23:40:46.223Z,5.30
2018-07-16T23:42:50.723Z,5.13
2018-07-16T23:44:57.100Z,5.17
2018-07-16T23:47:02.320Z,6.63
2018-07-16T23:49:07.963Z,7.63
2018-07-16T23:51:19.796Z,4.83
2018-07-16T23:53:23.955Z,5.17
2018-07-16T23:55:27.476Z,4.70
2018-07-16T23:57:32.033Z,4.53
2018-07-16T23:59:41.771Z,4.70
